createdAt,value
2018-06-17T00:01:50.496Z,3.20
2018-06-17T00:03:54.032Z,2.90
2018-06-17T00:05:57.559Z,3.10
2018-06-17T00:08:01.067Z,2.73
2018-06-17T00:10:05.466Z,3.07
2018-06-17T00:12:09.007Z,3.33
2018-06-17T00:14:12.568Z,2.97
2018-06-17T00:16:16.163Z,3.03
2018-06-17T00:18:19.689Z,3.30
2018-06-17T00:20:23.226Z,3.43
2018-06-17T00:22:26.778Z,3.40
2018-06-17T00:24:30.356Z,3.10
2018-06-17T00:26:33.920Z,3.37
2018-06-17T00:28:37.485Z,3.40
2018-06-17T00:30:41.015Z,3.07
2018-06-17T00:32:44.605Z,3.43
2018-06-17T00:34:48.153Z,3.17
2018-06-17T00:36:51.756Z,3.20
2018-06-17T00:38:55.334Z,3.57
2018-06-17T00:40:58.845Z,3.10
2018-06-17T00:43:02.360Z,3.37
2018-06-17T00:45:05.889Z,3.53
2018-06-17T00:47:09.422Z,3.87
2018-06-17T00:49:12.928Z,4.23
2018-06-17T00:51:16.387Z,3.87
2018-06-17T00:53:19.961Z,3.73
2018-06-17T00:55:23.429Z,3.80
2018-06-17T00:57:37.988Z,3.73
2018-06-17T00:59:41.533Z,3.40
2018-06-17T01:01:45.008Z,4.00
2018-06-17T01:03:48.599Z,3.90
2018-06-17T01:05:52.091Z,4.00
2018-06-17T01:07:55.689Z,4.10
2018-06-17T01:09:59.245Z,4.27
2018-06-17T01:12:02.782Z,3.83
2018-06-17T01:14:06.412Z,4.30
2018-06-17T01:16:09.907Z,3.80
2018-06-17T01:18:13.440Z,3.80
2018-06-17T01:20:16.974Z,3.67
2018-06-17T01:22:20.536Z,3.87
2018-06-17T01:24:24.069Z,3.63
2018-06-17T01:26:27.669Z,4.00
2018-06-17T01:28:31.316Z,3.90
2018-06-17T01:30:34.848Z,4.40
2018-06-17T01:32:38.349Z,3.90
2018-06-17T01:34:41.841Z,3.90
2018-06-17T01:36:51.894Z,3.90
2018-06-17T01:38:55.443Z,3.70
2018-06-17T01:40:59.260Z,4.00
2018-06-17T01:43:02.792Z,4.43
2018-06-17T01:45:06.315Z,3.67
2018-06-17T01:47:09.824Z,3.77
2018-06-17T01:49:13.345Z,4.03
2018-06-17T01:51:16.869Z,4.27
2018-06-17T01:53:20.749Z,3.90
2018-06-17T01:55:24.268Z,4.00
2018-06-17T01:57:27.793Z,4.10
2018-06-17T01:59:31.322Z,4.30
2018-06-17T02:01:34.824Z,4.17
2018-06-17T02:03:43.574Z,4.50
2018-06-17T02:05:52.491Z,4.60
2018-06-17T02:08:01.384Z,4.67
2018-06-17T02:10:10.411Z,4.37
2018-06-17T02:12:17.491Z,4.40
2018-06-17T02:14:26.262Z,4.37
2018-06-17T02:16:29.765Z,4.67
2018-06-17T02:18:33.297Z,5.03
2018-06-17T02:20:36.788Z,4.80
2018-06-17T02:22:40.319Z,4.53
2018-06-17T02:24:43.857Z,4.87
2018-06-17T02:26:47.380Z,4.60
2018-06-17T02:28:50.915Z,4.40
2018-06-17T02:30:54.453Z,4.57
2018-06-17T02:32:57.942Z,4.80
2018-06-17T02:35:01.445Z,4.80
2018-06-17T02:37:05.066Z,4.43
2018-06-17T02:39:09.317Z,4.17
2018-06-17T02:41:12.820Z,4.97
2018-06-17T02:43:16.397Z,4.63
2018-06-17T02:45:25.153Z,5.03
2018-06-17T02:47:33.877Z,5.10
2018-06-17T02:49:39.791Z,5.53
2018-06-17T02:51:55.469Z,4.57
2018-06-17T02:54:04.257Z,4.57
2018-06-17T02:56:07.807Z,4.50
2018-06-17T02:58:11.307Z,4.57
2018-06-17T03:00:14.872Z,4.07
2018-06-17T03:02:18.547Z,4.33
2018-06-17T03:04:22.053Z,4.80
2018-06-17T03:06:25.604Z,4.13
2018-06-17T03:08:29.131Z,5.07
2018-06-17T03:10:32.683Z,5.10
2018-06-17T03:12:36.182Z,5.27
2018-06-17T03:14:39.747Z,4.90
2018-06-17T03:16:43.276Z,4.57
2018-06-17T03:18:46.842Z,5.17
2018-06-17T03:20:50.361Z,5.43
2018-06-17T03:23:00.416Z,4.70
2018-06-17T03:26:13.058Z,5.30
2018-06-17T03:28:22.073Z,5.30
2018-06-17T03:30:31.080Z,5.93
2018-06-17T03:32:40.032Z,5.50
2018-06-17T03:34:43.558Z,6.37
2018-06-17T03:36:47.071Z,6.17
2018-06-17T03:38:50.658Z,5.70
2018-06-17T03:40:54.206Z,5.77
2018-06-17T03:42:57.700Z,5.30
2018-06-17T03:45:01.193Z,5.20
2018-06-17T03:47:04.730Z,5.00
2018-06-17T03:49:08.228Z,6.13
2018-06-17T03:51:11.765Z,5.73
2018-06-17T03:53:15.230Z,5.00
2018-06-17T03:55:18.773Z,5.80
2018-06-17T03:57:22.284Z,5.53
2018-06-17T03:59:25.797Z,5.07
2018-06-17T04:01:29.359Z,6.00
2018-06-17T04:03:32.867Z,5.10
2018-06-17T04:05:36.392Z,4.60
2018-06-17T04:07:39.902Z,5.13
2018-06-17T04:09:43.433Z,5.57
2018-06-17T04:11:46.941Z,6.20
2018-06-17T04:13:50.411Z,5.70
2018-06-17T04:15:53.994Z,5.80
2018-06-17T04:17:57.638Z,5.53
2018-06-17T04:20:01.168Z,5.23
2018-06-17T04:22:04.671Z,5.47
2018-06-17T04:24:08.192Z,5.33
2018-06-17T04:26:11.694Z,4.97
2018-06-17T04:28:15.259Z,5.40
2018-06-17T04:30:18.748Z,5.50
2018-06-17T04:32:22.246Z,5.47
2018-06-17T04:34:25.787Z,4.90
2018-06-17T04:36:29.306Z,5.23
2018-06-17T04:38:32.763Z,4.27
2018-06-17T04:40:36.317Z,4.57
2018-06-17T04:42:39.836Z,4.63
2018-06-17T04:44:43.351Z,5.13
2018-06-17T04:46:46.912Z,4.90
2018-06-17T04:48:50.406Z,3.93
2018-06-17T04:50:53.875Z,4.20
2018-06-17T04:52:59.216Z,3.97
2018-06-17T04:55:02.701Z,4.53
2018-06-17T04:57:06.289Z,4.27
2018-06-17T04:59:09.828Z,4.47
2018-06-17T05:01:13.399Z,4.47
2018-06-17T05:03:16.942Z,4.13
2018-06-17T05:05:20.507Z,5.10
2018-06-17T05:07:24.054Z,5.00
2018-06-17T05:09:27.560Z,4.03
2018-06-17T05:11:31.098Z,5.30
2018-06-17T05:13:34.609Z,4.20
2018-06-17T05:15:38.149Z,4.53
2018-06-17T05:17:41.664Z,4.40
2018-06-17T05:19:45.179Z,4.43
2018-06-17T05:21:48.733Z,4.73
2018-06-17T05:23:52.272Z,4.97
2018-06-17T05:25:55.769Z,4.33
2018-06-17T05:27:59.262Z,4.97
2018-06-17T05:30:02.744Z,5.17
2018-06-17T05:32:06.936Z,4.20
2018-06-17T05:34:10.459Z,4.77
2018-06-17T05:36:13.987Z,4.33
2018-06-17T05:38:17.487Z,4.37
2018-06-17T05:40:21.012Z,4.03
2018-06-17T05:42:24.508Z,4.30
2018-06-17T05:44:28.053Z,3.63
2018-06-17T05:46:31.594Z,3.80
2018-06-17T05:48:35.100Z,3.67
2018-06-17T05:50:38.632Z,3.37
2018-06-17T05:52:42.285Z,3.40
2018-06-17T05:54:45.791Z,4.10
2018-06-17T05:56:49.319Z,3.37
2018-06-17T05:58:52.818Z,2.90
2018-06-17T06:00:56.372Z,3.10
2018-06-17T06:02:59.919Z,3.30
2018-06-17T06:05:03.439Z,3.03
2018-06-17T06:07:06.963Z,3.70
2018-06-17T06:09:11.716Z,3.33
2018-06-17T06:11:15.252Z,3.20
2018-06-17T06:13:18.796Z,2.87
2018-06-17T06:15:22.442Z,3.90
2018-06-17T06:17:25.972Z,2.90
2018-06-17T06:19:29.403Z,3.00
2018-06-17T06:21:33.190Z,2.93
2018-06-17T06:23:36.698Z,3.10
2018-06-17T06:25:40.153Z,3.23
2018-06-17T06:27:43.631Z,2.60
2018-06-17T06:29:47.087Z,2.43
2018-06-17T06:31:50.577Z,2.60
2018-06-17T06:33:54.199Z,2.30
2018-06-17T06:35:57.701Z,2.27
2018-06-17T06:38:01.243Z,3.07
2018-06-17T06:40:04.703Z,2.57
2018-06-17T06:42:08.232Z,2.87
2018-06-17T06:44:11.748Z,2.47
2018-06-17T06:46:15.244Z,2.80
2018-06-17T06:48:18.738Z,2.70
2018-06-17T06:50:22.249Z,2.60
2018-06-17T06:52:25.770Z,2.73
2018-06-17T06:54:29.262Z,2.77
2018-06-17T06:56:32.858Z,2.70
2018-06-17T06:58:36.463Z,2.47
2018-06-17T07:00:39.962Z,2.53
2018-06-17T07:02:54.744Z,3.07
2018-06-17T07:06:08.388Z,2.60
2018-06-17T07:08:23.175Z,3.00
2018-06-17T07:10:28.111Z,2.60
2018-06-17T07:12:31.592Z,3.10
2018-06-17T07:14:35.096Z,2.53
2018-06-17T07:16:49.825Z,2.40
2018-06-17T07:18:53.596Z,2.37
2018-06-17T07:20:57.093Z,2.03
2018-06-17T07:23:00.591Z,2.53
2018-06-17T07:25:04.094Z,1.93
2018-06-17T07:27:19.039Z,2.50
2018-06-17T07:29:36.213Z,2.10
2018-06-17T07:31:39.778Z,2.23
2018-06-17T07:33:43.316Z,2.30
2018-06-17T07:35:46.821Z,2.10
2018-06-17T07:37:50.348Z,2.10
2018-06-17T07:40:15.309Z,1.70
2018-06-17T07:42:18.809Z,1.87
2018-06-17T07:44:22.335Z,1.93
2018-06-17T07:46:25.931Z,2.03
2018-06-17T07:49:45.612Z,2.23
2018-06-17T07:52:00.471Z,1.60
2018-06-17T07:54:03.985Z,1.20
2018-06-17T07:56:07.587Z,1.77
2018-06-17T07:58:11.203Z,1.70
2018-06-17T08:00:14.716Z,1.17
2018-06-17T08:02:18.537Z,1.50
2018-06-17T08:04:22.126Z,1.57
2018-06-17T08:06:25.584Z,2.03
2018-06-17T08:08:29.142Z,1.77
2018-06-17T08:10:32.663Z,1.90
2018-06-17T08:12:36.172Z,1.43
2018-06-17T08:14:39.931Z,1.67
2018-06-17T08:16:43.471Z,1.70
2018-06-17T08:18:46.969Z,1.70
2018-06-17T08:20:50.493Z,1.83
2018-06-17T08:22:53.983Z,1.70
2018-06-17T08:24:57.477Z,1.57
2018-06-17T08:27:01.019Z,1.47
2018-06-17T08:29:04.664Z,1.37
2018-06-17T08:31:08.158Z,1.60
2018-06-17T08:33:11.675Z,1.70
2018-06-17T08:35:15.232Z,1.80
2018-06-17T08:37:18.752Z,1.67
2018-06-17T08:39:23.618Z,2.03
2018-06-17T08:41:27.194Z,1.67
2018-06-17T08:43:30.714Z,1.60
2018-06-17T08:45:34.234Z,1.70
2018-06-17T08:47:37.762Z,1.60
2018-06-17T08:49:41.261Z,1.87
2018-06-17T08:51:44.800Z,2.03
2018-06-17T08:53:48.313Z,1.73
2018-06-17T08:55:51.805Z,1.90
2018-06-17T08:57:55.294Z,1.70
2018-06-17T08:59:58.839Z,1.67
2018-06-17T09:02:02.349Z,1.90
2018-06-17T09:04:05.869Z,1.57
2018-06-17T09:06:09.354Z,2.00
2018-06-17T09:08:12.945Z,1.80
2018-06-17T09:10:16.544Z,1.80
2018-06-17T09:12:20.132Z,1.50
2018-06-17T09:14:23.792Z,2.03
2018-06-17T09:16:27.327Z,1.90
2018-06-17T09:18:30.868Z,2.00
2018-06-17T09:20:34.520Z,1.83
2018-06-17T09:22:37.998Z,1.93
2018-06-17T09:24:41.539Z,1.73
2018-06-17T09:26:45.102Z,1.73
2018-06-17T09:28:48.648Z,2.30
2018-06-17T09:30:52.174Z,2.07
2018-06-17T09:32:55.653Z,1.90
2018-06-17T09:34:59.235Z,2.10
2018-06-17T09:37:02.705Z,1.80
2018-06-17T09:39:08.070Z,1.93
2018-06-17T09:41:11.632Z,2.23
2018-06-17T09:43:15.183Z,2.07
2018-06-17T09:45:18.794Z,1.63
2018-06-17T09:47:22.323Z,2.20
2018-06-17T09:49:25.896Z,1.90
2018-06-17T09:51:29.450Z,1.70
2018-06-17T09:53:33.004Z,2.00
2018-06-17T09:55:36.602Z,2.20
2018-06-17T09:57:40.126Z,2.20
2018-06-17T09:59:43.684Z,2.63
2018-06-17T10:01:47.183Z,2.37
2018-06-17T10:03:50.847Z,1.87
2018-06-17T10:05:54.576Z,2.07
2018-06-17T10:07:58.120Z,2.10
2018-06-17T10:11:13.498Z,2.10
2018-06-17T10:13:17.482Z,2.07
2018-06-17T10:15:20.999Z,2.20
2018-06-17T10:17:24.496Z,2.13
2018-06-17T10:19:28.009Z,2.10
2018-06-17T10:21:31.533Z,2.33
2018-06-17T10:23:35.048Z,2.20
2018-06-17T10:25:38.581Z,2.53
2018-06-17T10:27:42.054Z,2.27
2018-06-17T10:29:45.708Z,2.07
2018-06-17T10:31:49.143Z,2.10
2018-06-17T10:33:52.647Z,2.60
2018-06-17T10:35:56.390Z,1.90
2018-06-17T10:37:59.960Z,2.63
2018-06-17T10:40:03.700Z,2.83
2018-06-17T10:42:07.193Z,2.30
2018-06-17T10:44:10.663Z,2.33
2018-06-17T10:46:14.186Z,2.70
2018-06-17T10:48:17.710Z,2.37
2018-06-17T10:50:21.679Z,2.20
2018-06-17T10:52:25.251Z,3.33
2018-06-17T10:54:28.752Z,2.60
2018-06-17T10:56:32.308Z,2.63
2018-06-17T10:58:35.841Z,2.60
2018-06-17T11:00:39.373Z,2.43
2018-06-17T11:02:42.921Z,2.40
2018-06-17T11:04:46.462Z,2.07
2018-06-17T11:06:49.988Z,2.20
2018-06-17T11:08:53.497Z,2.40
2018-06-17T11:10:57.027Z,2.87
2018-06-17T11:13:00.557Z,2.27
2018-06-17T11:15:04.452Z,2.27
2018-06-17T11:17:07.991Z,2.77
2018-06-17T11:19:11.486Z,2.47
2018-06-17T11:21:15.027Z,2.80
2018-06-17T11:23:18.491Z,2.50
2018-06-17T11:25:22.029Z,2.70
2018-06-17T11:27:25.523Z,2.77
2018-06-17T11:29:29.038Z,2.70
2018-06-17T11:31:32.546Z,2.83
2018-06-17T11:33:36.042Z,2.40
2018-06-17T11:35:39.552Z,2.80
2018-06-17T11:37:43.158Z,2.80
2018-06-17T11:39:47.167Z,2.73
2018-06-17T11:41:50.732Z,2.47
2018-06-17T11:43:54.225Z,2.37
2018-06-17T11:45:57.787Z,2.30
2018-06-17T11:48:01.320Z,2.70
2018-06-17T11:50:04.911Z,2.50
2018-06-17T11:52:08.495Z,2.43
2018-06-17T11:54:11.985Z,3.00
2018-06-17T11:56:15.548Z,2.63
2018-06-17T11:58:19.027Z,2.77
2018-06-17T12:00:22.940Z,2.73
2018-06-17T12:02:26.476Z,3.03
2018-06-17T12:04:30.010Z,2.37
2018-06-17T12:06:33.564Z,2.60
2018-06-17T12:08:37.179Z,2.60
2018-06-17T12:10:40.690Z,3.00
2018-06-17T12:12:44.231Z,2.87
2018-06-17T12:14:47.794Z,2.30
2018-06-17T12:16:51.424Z,2.37
2018-06-17T12:18:54.992Z,2.53
2018-06-17T12:20:58.467Z,2.47
2018-06-17T12:23:01.993Z,2.90
2018-06-17T12:25:05.903Z,3.07
2018-06-17T12:27:09.561Z,2.70
2018-06-17T12:29:13.051Z,2.33
2018-06-17T12:31:16.552Z,2.57
2018-06-17T12:33:20.015Z,2.40
2018-06-17T12:35:23.596Z,2.60
2018-06-17T12:37:27.133Z,3.00
2018-06-17T12:39:30.677Z,2.43
2018-06-17T12:41:34.213Z,2.87
2018-06-17T12:43:37.786Z,2.77
2018-06-17T12:45:41.306Z,2.60
2018-06-17T12:47:44.854Z,2.47
2018-06-17T12:49:48.367Z,2.77
2018-06-17T12:51:51.858Z,2.40
2018-06-17T12:53:55.356Z,2.67
2018-06-17T12:55:58.905Z,2.47
2018-06-17T12:58:02.431Z,2.43
2018-06-17T13:00:06.760Z,2.47
2018-06-17T13:02:10.264Z,2.23
2018-06-17T13:04:13.775Z,2.10
2018-06-17T13:06:17.269Z,2.53
2018-06-17T13:08:21.009Z,1.97
2018-06-17T13:10:24.525Z,2.10
2018-06-17T13:12:28.025Z,1.80
2018-06-17T13:14:31.536Z,1.90
2018-06-17T13:16:35.084Z,1.70
2018-06-17T13:18:38.582Z,2.10
2018-06-17T13:20:42.155Z,1.87
2018-06-17T13:22:45.704Z,2.50
2018-06-17T13:24:49.195Z,1.97
2018-06-17T13:26:52.691Z,1.90
2018-06-17T13:28:56.220Z,2.20
2018-06-17T13:30:59.759Z,2.10
2018-06-17T13:33:03.544Z,2.17
2018-06-17T13:35:07.187Z,2.00
2018-06-17T13:37:10.657Z,2.00
2018-06-17T13:39:14.188Z,2.20
2018-06-17T13:41:17.761Z,2.67
2018-06-17T13:43:21.278Z,1.97
2018-06-17T13:45:24.763Z,2.10
2018-06-17T13:47:28.248Z,2.07
2018-06-17T13:49:31.733Z,2.13
2018-06-17T13:51:35.183Z,2.17
2018-06-17T13:53:38.713Z,2.13
2018-06-17T13:55:42.171Z,2.60
2018-06-17T13:57:45.684Z,2.13
2018-06-17T13:59:49.244Z,2.10
2018-06-17T14:01:52.755Z,2.47
2018-06-17T14:03:56.304Z,2.23
2018-06-17T14:05:59.830Z,2.77
2018-06-17T14:08:03.346Z,2.47
2018-06-17T14:10:07.008Z,2.43
2018-06-17T14:12:10.502Z,2.47
2018-06-17T14:14:14.044Z,2.00
2018-06-17T14:16:17.581Z,2.83
2018-06-17T14:18:21.542Z,2.63
2018-06-17T14:20:25.046Z,2.33
2018-06-17T14:22:28.538Z,2.47
2018-06-17T14:24:32.125Z,2.37
2018-06-17T14:26:35.620Z,2.37
2018-06-17T14:28:39.281Z,2.40
2018-06-17T14:30:42.764Z,2.83
2018-06-17T14:32:46.295Z,2.10
2018-06-17T14:34:49.819Z,2.40
2018-06-17T14:36:53.299Z,2.70
2018-06-17T14:38:56.855Z,2.87
2018-06-17T14:41:05.719Z,2.60
2018-06-17T14:43:14.501Z,2.83
2018-06-17T14:45:23.200Z,2.53
2018-06-17T14:47:31.995Z,2.60
2018-06-17T14:49:40.706Z,2.33
2018-06-17T14:51:49.520Z,2.53
2018-06-17T14:53:53.030Z,2.60
2018-06-17T14:55:56.564Z,2.70
2018-06-17T14:58:00.075Z,2.70
2018-06-17T15:00:03.618Z,2.40
2018-06-17T15:02:07.128Z,2.60
2018-06-17T15:04:11.015Z,2.30
2018-06-17T15:06:14.841Z,2.67
2018-06-17T15:08:18.374Z,2.60
2018-06-17T15:10:22.011Z,2.60
2018-06-17T15:12:25.508Z,2.30
2018-06-17T15:14:29.121Z,2.40
2018-06-17T15:16:32.783Z,2.80
2018-06-17T15:18:36.289Z,2.60
2018-06-17T15:20:39.833Z,2.90
2018-06-17T15:22:43.374Z,3.10
2018-06-17T15:24:46.875Z,2.57
2018-06-17T15:26:50.613Z,3.00
2018-06-17T15:28:54.116Z,2.70
2018-06-17T15:31:03.088Z,2.43
2018-06-17T15:33:11.883Z,2.87
2018-06-17T15:35:20.631Z,2.50
2018-06-17T15:37:29.598Z,2.60
2018-06-17T15:39:38.400Z,2.77
2018-06-17T15:41:41.893Z,2.40
2018-06-17T15:43:45.390Z,2.67
2018-06-17T15:45:48.946Z,2.47
2018-06-17T15:47:52.442Z,2.80
2018-06-17T15:49:55.964Z,2.40
2018-06-17T15:51:59.471Z,2.50
2018-06-17T15:54:03.016Z,2.50
2018-06-17T15:56:06.578Z,2.27
2018-06-17T15:58:10.089Z,2.90
2018-06-17T16:00:13.601Z,2.87
2018-06-17T16:02:17.155Z,2.40
2018-06-17T16:04:20.615Z,3.13
2018-06-17T16:06:24.175Z,3.00
2018-06-17T16:08:27.665Z,2.47
2018-06-17T16:10:31.218Z,2.53
2018-06-17T16:12:39.964Z,2.70
2018-06-17T16:14:48.676Z,2.50
2018-06-17T16:16:57.424Z,2.63
2018-06-17T16:19:06.124Z,2.53
2018-06-17T16:21:10.030Z,2.30
2018-06-17T16:23:13.547Z,2.80
2018-06-17T16:25:17.152Z,3.17
2018-06-17T16:27:20.700Z,2.90
2018-06-17T16:29:24.220Z,2.60
2018-06-17T16:31:27.712Z,2.47
2018-06-17T16:33:31.185Z,2.63
2018-06-17T16:35:34.699Z,2.70
2018-06-17T16:37:38.180Z,2.53
2018-06-17T16:39:41.707Z,2.53
2018-06-17T16:41:45.172Z,2.37
2018-06-17T16:43:48.714Z,2.77
2018-06-17T16:45:52.221Z,2.83
2018-06-17T16:47:55.769Z,2.63
2018-06-17T16:49:59.243Z,2.70
2018-06-17T16:52:08.073Z,2.77
2018-06-17T16:54:16.893Z,2.50
2018-06-17T16:56:25.502Z,2.30
2018-06-17T16:58:34.407Z,2.63
2018-06-17T17:00:37.916Z,2.20
2018-06-17T17:02:41.411Z,2.30
2018-06-17T17:04:44.890Z,2.53
2018-06-17T17:06:48.919Z,2.40
2018-06-17T17:08:52.475Z,2.80
2018-06-17T17:10:55.964Z,2.43
2018-06-17T17:12:59.471Z,2.30
2018-06-17T17:15:02.967Z,2.37
2018-06-17T17:17:06.553Z,2.30
2018-06-17T17:19:10.448Z,2.70
2018-06-17T17:21:13.974Z,3.03
2018-06-17T17:23:17.506Z,2.20
2018-06-17T17:25:21.114Z,2.53
2018-06-17T17:27:24.657Z,2.67
2018-06-17T17:29:28.107Z,2.53
2018-06-17T17:31:36.864Z,2.37
2018-06-17T17:33:45.621Z,2.90
2018-06-17T17:35:54.463Z,2.27
2018-06-17T17:38:03.355Z,2.50
2018-06-17T17:40:12.217Z,2.67
2018-06-17T17:42:15.711Z,2.50
2018-06-17T17:44:19.274Z,2.63
2018-06-17T17:46:27.996Z,2.03
2018-06-17T17:48:31.817Z,2.57
2018-06-17T17:50:35.311Z,2.00
2018-06-17T17:52:38.865Z,2.20
2018-06-17T17:54:42.368Z,1.93
2018-06-17T17:56:45.926Z,2.30
2018-06-17T17:58:49.460Z,2.60
2018-06-17T18:00:53.022Z,2.00
2018-06-17T18:02:56.587Z,2.30
2018-06-17T18:05:00.253Z,2.00
2018-06-17T18:07:03.778Z,3.23
2018-06-17T18:09:08.927Z,2.13
2018-06-17T18:11:12.488Z,2.30
2018-06-17T18:13:16.176Z,2.10
2018-06-17T18:15:19.837Z,2.40
2018-06-17T18:17:23.405Z,1.90
2018-06-17T18:19:27.202Z,2.37
2018-06-17T18:21:30.668Z,2.10
2018-06-17T18:23:34.325Z,2.13
2018-06-17T18:25:43.117Z,2.17
2018-06-17T18:27:51.978Z,2.13
2018-06-17T18:30:00.799Z,2.03
2018-06-17T18:32:10.028Z,2.93
2018-06-17T18:34:18.828Z,2.00
2018-06-17T18:36:22.356Z,2.30
2018-06-17T18:38:25.897Z,2.23
2018-06-17T18:40:29.444Z,2.07
2018-06-17T18:42:32.935Z,2.30
2018-06-17T18:44:36.452Z,2.40
2018-06-17T18:46:39.948Z,2.47
2018-06-17T18:48:43.423Z,2.27
2018-06-17T18:50:46.991Z,2.37
2018-06-17T18:52:50.487Z,1.80
2018-06-17T18:54:54.268Z,2.40
2018-06-17T18:56:58.064Z,2.20
2018-06-17T18:59:01.621Z,2.40
2018-06-17T19:01:05.543Z,2.47
2018-06-17T19:03:09.031Z,2.20
2018-06-17T19:05:12.544Z,2.20
2018-06-17T19:07:16.067Z,2.00
2018-06-17T19:10:32.402Z,2.07
2018-06-17T19:14:56.524Z,2.30
2018-06-17T19:17:05.393Z,2.40
2018-06-17T19:19:08.918Z,2.50
2018-06-17T19:21:12.486Z,2.20
2018-06-17T19:23:15.956Z,2.20
2018-06-17T19:25:19.441Z,1.67
2018-06-17T19:27:23.052Z,2.10
2018-06-17T19:29:26.539Z,2.30
2018-06-17T19:31:30.094Z,2.03
2018-06-17T19:33:33.572Z,2.40
2018-06-17T19:35:37.066Z,2.40
2018-06-17T19:37:40.600Z,2.20
2018-06-17T19:39:44.121Z,1.93
2018-06-17T19:41:47.689Z,2.30
2018-06-17T19:43:51.212Z,2.77
2018-06-17T19:45:54.699Z,2.37
2018-06-17T19:47:58.208Z,2.20
2018-06-17T19:50:06.907Z,2.67
2018-06-17T19:52:15.834Z,2.30
2018-06-17T19:54:24.609Z,2.40
2018-06-17T19:56:33.649Z,2.13
2018-06-17T19:58:42.355Z,2.30
2018-06-17T20:00:47.614Z,2.67
2018-06-17T20:02:51.323Z,3.10
2018-06-17T20:04:54.874Z,2.73
2018-06-17T20:06:58.371Z,2.90
2018-06-17T20:09:01.975Z,2.60
2018-06-17T20:11:05.771Z,3.07
2018-06-17T20:13:09.279Z,2.67
2018-06-17T20:15:12.788Z,2.50
2018-06-17T20:17:16.347Z,2.40
2018-06-17T20:19:19.880Z,2.47
2018-06-17T20:21:23.380Z,2.30
2018-06-17T20:23:26.964Z,2.40
2018-06-17T20:25:30.508Z,2.20
2018-06-17T20:27:34.060Z,2.50
2018-06-17T20:29:37.537Z,2.37
2018-06-17T20:31:46.280Z,2.37
2018-06-17T20:33:55.007Z,2.27
2018-06-17T20:36:03.729Z,2.47
2018-06-17T20:38:12.525Z,2.57
2018-06-17T20:40:21.463Z,2.83
2018-06-17T20:42:30.306Z,2.40
2018-06-17T20:44:33.810Z,2.63
2018-06-17T20:46:37.296Z,2.53
2018-06-17T20:48:40.783Z,2.50
2018-06-17T20:50:44.330Z,2.60
2018-06-17T20:52:47.878Z,3.00
2018-06-17T20:54:51.336Z,2.40
2018-06-17T20:56:55.288Z,2.60
2018-06-17T20:58:58.763Z,2.57
2018-06-17T21:01:02.337Z,2.23
2018-06-17T21:03:05.940Z,2.40
2018-06-17T21:05:09.417Z,3.70
2018-06-17T21:07:12.905Z,2.80
2018-06-17T21:09:16.370Z,2.70
2018-06-17T21:11:19.870Z,2.60
2018-06-17T21:13:23.490Z,2.63
2018-06-17T21:15:26.947Z,3.10
2018-06-17T21:17:30.444Z,2.87
2018-06-17T21:19:39.285Z,2.60
2018-06-17T21:21:47.892Z,3.40
2018-06-17T21:23:56.742Z,4.50
2018-06-17T21:26:05.523Z,3.47
2018-06-17T21:28:09.064Z,3.20
2018-06-17T21:30:12.527Z,3.13
2018-06-17T21:32:16.008Z,2.30
2018-06-17T21:34:19.563Z,2.40
2018-06-17T21:36:23.063Z,2.60
2018-06-17T21:38:26.635Z,2.80
2018-06-17T21:40:30.138Z,2.90
2018-06-17T21:42:33.724Z,3.90
2018-06-17T21:44:37.252Z,2.67
2018-06-17T21:46:47.323Z,2.90
2018-06-17T21:48:50.857Z,3.83
2018-06-17T21:50:54.361Z,2.87
2018-06-17T21:52:57.890Z,3.00
2018-06-17T21:55:01.443Z,3.00
2018-06-17T21:57:05.368Z,3.00
2018-06-17T21:59:09.002Z,2.80
2018-06-17T22:01:12.516Z,2.77
2018-06-17T22:03:16.019Z,2.83
2018-06-17T22:05:19.583Z,3.20
2018-06-17T22:07:23.058Z,2.50
2018-06-17T22:09:31.735Z,2.87
2018-06-17T22:11:40.633Z,2.53
2018-06-17T22:13:49.834Z,3.23
2018-06-17T22:15:58.672Z,2.90
2018-06-17T22:18:02.275Z,3.90
2018-06-17T22:20:05.911Z,3.00
2018-06-17T22:22:09.475Z,2.70
2018-06-17T22:24:13.008Z,3.20
2018-06-17T22:26:16.503Z,2.80
2018-06-17T22:28:20.010Z,3.23
2018-06-17T22:30:23.537Z,2.73
2018-06-17T22:32:27.065Z,2.80
2018-06-17T22:34:30.649Z,2.93
2018-06-17T22:36:34.213Z,2.93
2018-06-17T22:38:37.794Z,3.20
2018-06-17T22:40:41.280Z,2.93
2018-06-17T22:42:44.798Z,2.60
2018-06-17T22:44:48.314Z,2.93
2018-06-17T22:46:51.823Z,2.67
2018-06-17T22:48:55.337Z,3.00
2018-06-17T22:50:58.866Z,3.13
2018-06-17T22:53:13.556Z,3.13
2018-06-17T22:55:17.110Z,2.63
2018-06-17T22:57:25.961Z,2.80
2018-06-17T22:59:34.764Z,3.43
2018-06-17T23:01:43.504Z,2.97
2018-06-17T23:03:52.348Z,2.80
2018-06-17T23:06:01.148Z,3.47
2018-06-17T23:08:09.823Z,3.30
2018-06-17T23:10:13.415Z,2.87
2018-06-17T23:12:16.942Z,2.90
2018-06-17T23:14:20.493Z,2.93
2018-06-17T23:16:24.009Z,3.00
2018-06-17T23:18:27.519Z,2.73
2018-06-17T23:20:31.097Z,2.87
2018-06-17T23:22:34.658Z,2.87
2018-06-17T23:24:38.283Z,2.80
2018-06-17T23:26:41.961Z,2.80
2018-06-17T23:28:45.551Z,2.67
2018-06-17T23:30:49.089Z,3.00
2018-06-17T23:32:52.614Z,3.07
2018-06-17T23:34:56.179Z,3.50
2018-06-17T23:36:59.675Z,3.47
2018-06-17T23:39:03.330Z,3.17
2018-06-17T23:41:06.968Z,2.53
2018-06-17T23:43:10.523Z,3.00
2018-06-17T23:45:14.099Z,2.73
2018-06-17T23:47:23.049Z,2.90
2018-06-17T23:49:31.760Z,2.93
2018-06-17T23:51:40.480Z,2.97
2018-06-17T23:53:49.255Z,2.80
2018-06-17T23:55:57.963Z,2.63
2018-06-17T23:58:01.461Z,2.70
